sensor_id;sensor_type;location;lat;lon;timestamp;P1;durP1;ratioP1;P2;durP2;ratioP2
20497;SDS011;10407;53.238;10.448;2023-11-19T00:01:16;129.47;;;32.50;;
20497;SDS011;10407;53.238;10.448;2023-11-19T00:03:44;131.50;;;33.60;;
20497;SDS011;10407;53.238;10.448;2023-11-19T00:06:11;127.77;;;32.40;;
20497;SDS011;10407;53.238;10.448;2023-11-19T00:08:39;128.50;;;35.60;;
20497;SDS011;10407;53.238;10.448;2023-11-19T00:11:06;126.97;;;31.03;;
20497;SDS011;10407;53.238;10.448;2023-11-19T00:13:34;124.77;;;30.10;;
20497;SDS011;10407;53.238;10.448;2023-11-19T00:16:01;126.87;;;31.97;;
20497;SDS011;10407;53.238;10.448;2023-11-19T00:18:30;125.77;;;32.40;;
20497;SDS011;10407;53.238;10.448;2023-11-19T00:20:58;128.40;;;32.50;;
20497;SDS011;10407;53.238;10.448;2023-11-19T00:23:26;127.13;;;33.33;;
20497;SDS011;10407;53.238;10.448;2023-11-19T00:25:53;130.57;;;34.60;;
20497;SDS011;10407;53.238;10.448;2023-11-19T00:28:21;128.17;;;34.77;;
20497;SDS011;10407;53.238;10.448;2023-11-19T00:30:49;127.30;;;31.30;;
20497;SDS011;10407;53.238;10.448;2023-11-19T00:33:17;127.17;;;33.10;;
20497;SDS011;10407;53.238;10.448;2023-11-19T00:35:44;127.27;;;32.17;;
20497;SDS011;10407;53.238;10.448;2023-11-19T00:38:12;126.17;;;33.17;;
20497;SDS011;10407;53.238;10.448;2023-11-19T00:40:39;126.80;;;33.00;;
20497;SDS011;10407;53.238;10.448;2023-11-19T00:43:07;125.90;;;33.60;;
20497;SDS011;10407;53.238;10.448;2023-11-19T00:45:35;126.77;;;34.23;;
20497;SDS011;10407;53.238;10.448;2023-11-19T00:48:02;127.10;;;32.03;;
20497;SDS011;10407;53.238;10.448;2023-11-19T00:50:30;126.93;;;32.27;;
20497;SDS011;10407;53.238;10.448;2023-11-19T00:52:58;126.40;;;33.87;;
20497;SDS011;10407;53.238;10.448;2023-11-19T00:55:25;125.20;;;32.23;;
20497;SDS011;10407;53.238;10.448;2023-11-19T00:57:53;123.57;;;29.77;;
20497;SDS011;10407;53.238;10.448;2023-11-19T01:00:22;129.30;;;31.70;;
20497;SDS011;10407;53.238;10.448;2023-11-19T01:02:51;127.17;;;36.53;;
20497;SDS011;10407;53.238;10.448;2023-11-19T01:05:19;125.10;;;32.57;;
20497;SDS011;10407;53.238;10.448;2023-11-19T01:07:50;127.90;;;34.07;;
20497;SDS011;10407;53.238;10.448;2023-11-19T01:10:19;127.57;;;35.17;;
20497;SDS011;10407;53.238;10.448;2023-11-19T01:12:47;125.70;;;32.87;;
20497;SDS011;10407;53.238;10.448;2023-11-19T01:15:15;126.50;;;34.33;;
20497;SDS011;10407;53.238;10.448;2023-11-19T01:17:44;124.60;;;31.43;;
20497;SDS011;10407;53.238;10.448;2023-11-19T01:20:11;126.77;;;35.47;;
20497;SDS011;10407;53.238;10.448;2023-11-19T01:22:39;124.07;;;32.00;;
20497;SDS011;10407;53.238;10.448;2023-11-19T01:25:07;123.87;;;30.03;;
20497;SDS011;10407;53.238;10.448;2023-11-19T01:27:34;127.40;;;36.70;;
20497;SDS011;10407;53.238;10.448;2023-11-19T01:30:02;127.17;;;35.67;;
20497;SDS011;10407;53.238;10.448;2023-11-19T01:32:30;128.07;;;37.20;;
20497;SDS011;10407;53.238;10.448;2023-11-19T01:34:58;125.87;;;33.43;;
20497;SDS011;10407;53.238;10.448;2023-11-19T01:37:25;127.87;;;34.57;;
20497;SDS011;10407;53.238;10.448;2023-11-19T01:39:53;124.80;;;33.50;;
20497;SDS011;10407;53.238;10.448;2023-11-19T01:42:20;126.07;;;32.57;;
20497;SDS011;10407;53.238;10.448;2023-11-19T01:45:00;125.37;;;31.60;;
20497;SDS011;10407;53.238;10.448;2023-11-19T01:47:28;127.17;;;32.90;;
20497;SDS011;10407;53.238;10.448;2023-11-19T01:49:57;127.93;;;36.77;;
20497;SDS011;10407;53.238;10.448;2023-11-19T01:52:25;125.70;;;32.97;;
20497;SDS011;10407;53.238;10.448;2023-11-19T01:54:54;125.03;;;30.20;;
20497;SDS011;10407;53.238;10.448;2023-11-19T01:57:22;128.10;;;34.73;;
20497;SDS011;10407;53.238;10.448;2023-11-19T01:59:51;127.87;;;34.80;;
20497;SDS011;10407;53.238;10.448;2023-11-19T02:02:19;127.50;;;32.50;;
20497;SDS011;10407;53.238;10.448;2023-11-19T02:04:49;129.37;;;35.17;;
20497;SDS011;10407;53.238;10.448;2023-11-19T02:07:17;127.60;;;32.20;;
20497;SDS011;10407;53.238;10.448;2023-11-19T02:09:46;128.57;;;35.40;;
20497;SDS011;10407;53.238;10.448;2023-11-19T02:12:14;125.60;;;31.20;;
20497;SDS011;10407;53.238;10.448;2023-11-19T02:14:41;129.17;;;31.47;;
20497;SDS011;10407;53.238;10.448;2023-11-19T02:17:24;127.07;;;33.73;;
20497;SDS011;10407;53.238;10.448;2023-11-19T02:19:54;126.50;;;31.57;;
20497;SDS011;10407;53.238;10.448;2023-11-19T02:22:22;125.67;;;31.33;;
20497;SDS011;10407;53.238;10.448;2023-11-19T02:24:51;124.57;;;30.73;;
20497;SDS011;10407;53.238;10.448;2023-11-19T02:27:24;126.60;;;32.67;;
20497;SDS011;10407;53.238;10.448;2023-11-19T02:29:54;127.27;;;32.43;;
20497;SDS011;10407;53.238;10.448;2023-11-19T02:32:23;125.53;;;30.00;;
20497;SDS011;10407;53.238;10.448;2023-11-19T02:34:52;127.00;;;33.00;;
20497;SDS011;10407;53.238;10.448;2023-11-19T02:37:20;126.37;;;34.47;;
20497;SDS011;10407;53.238;10.448;2023-11-19T02:39:47;130.23;;;35.53;;
20497;SDS011;10407;53.238;10.448;2023-11-19T02:42:15;128.07;;;34.30;;
20497;SDS011;10407;53.238;10.448;2023-11-19T02:44:45;131.80;;;34.83;;
20497;SDS011;10407;53.238;10.448;2023-11-19T02:47:14;128.67;;;36.07;;
20497;SDS011;10407;53.238;10.448;2023-11-19T02:49:42;126.60;;;33.53;;
20497;SDS011;10407;53.238;10.448;2023-11-19T02:52:10;127.00;;;30.77;;
20497;SDS011;10407;53.238;10.448;2023-11-19T02:54:37;126.03;;;32.83;;
20497;SDS011;10407;53.238;10.448;2023-11-19T02:57:05;125.47;;;31.07;;
20497;SDS011;10407;53.238;10.448;2023-11-19T02:59:37;128.30;;;34.27;;
20497;SDS011;10407;53.238;10.448;2023-11-19T03:02:07;126.40;;;32.83;;
20497;SDS011;10407;53.238;10.448;2023-11-19T03:04:37;127.23;;;33.10;;
20497;SDS011;10407;53.238;10.448;2023-11-19T03:07:09;126.67;;;33.50;;
20497;SDS011;10407;53.238;10.448;2023-11-19T03:09:37;127.07;;;32.33;;
20497;SDS011;10407;53.238;10.448;2023-11-19T03:12:06;126.00;;;33.33;;
20497;SDS011;10407;53.238;10.448;2023-11-19T03:14:34;129.80;;;32.30;;
20497;SDS011;10407;53.238;10.448;2023-11-19T03:17:01;130.17;;;35.20;;
20497;SDS011;10407;53.238;10.448;2023-11-19T03:19:30;124.70;;;29.57;;
20497;SDS011;10407;53.238;10.448;2023-11-19T03:21:58;125.80;;;32.47;;
20497;SDS011;10407;53.238;10.448;2023-11-19T03:24:25;124.93;;;29.30;;
20497;SDS011;10407;53.238;10.448;2023-11-19T03:26:53;125.27;;;30.57;;
20497;SDS011;10407;53.238;10.448;2023-11-19T03:29:20;128.27;;;34.73;;
20497;SDS011;10407;53.238;10.448;2023-11-19T03:31:48;128.80;;;35.77;;
20497;SDS011;10407;53.238;10.448;2023-11-19T03:34:16;126.17;;;32.80;;
20497;SDS011;10407;53.238;10.448;2023-11-19T03:36:44;127.37;;;34.53;;
20497;SDS011;10407;53.238;10.448;2023-11-19T03:39:12;125.47;;;32.77;;
20497;SDS011;10407;53.238;10.448;2023-11-19T03:41:39;126.17;;;33.17;;
20497;SDS011;10407;53.238;10.448;2023-11-19T03:44:07;126.97;;;36.43;;
20497;SDS011;10407;53.238;10.448;2023-11-19T03:46:34;126.47;;;33.67;;
20497;SDS011;10407;53.238;10.448;2023-11-19T03:49:02;126.10;;;32.70;;
20497;SDS011;10407;53.238;10.448;2023-11-19T03:51:30;127.00;;;32.10;;
20497;SDS011;10407;53.238;10.448;2023-11-19T03:53:57;124.13;;;31.03;;
20497;SDS011;10407;53.238;10.448;2023-11-19T03:56:25;124.03;;;31.17;;
20497;SDS011;10407;53.238;10.448;2023-11-19T03:58:53;124.87;;;32.00;;
20497;SDS011;10407;53.238;10.448;2023-11-19T04:01:20;123.37;;;29.00;;
20497;SDS011;10407;53.238;10.448;2023-11-19T04:03:48;123.70;;;30.20;;
20497;SDS011;10407;53.238;10.448;2023-11-19T04:06:15;124.47;;;31.03;;
20497;SDS011;10407;53.238;10.448;2023-11-19T04:08:43;123.67;;;30.10;;
20497;SDS011;10407;53.238;10.448;2023-11-19T04:11:11;130.40;;;27.00;;
20497;SDS011;10407;53.238;10.448;2023-11-19T04:13:38;124.67;;;31.20;;
20497;SDS011;10407;53.238;10.448;2023-11-19T04:16:06;122.97;;;29.47;;
20497;SDS011;10407;53.238;10.448;2023-11-19T04:18:33;122.07;;;27.70;;
20497;SDS011;10407;53.238;10.448;2023-11-19T04:21:01;125.40;;;27.10;;
20497;SDS011;10407;53.238;10.448;2023-11-19T04:23:30;123.80;;;30.53;;
20497;SDS011;10407;53.238;10.448;2023-11-19T04:25:58;139.03;;;31.87;;
20497;SDS011;10407;53.238;10.448;2023-11-19T04:28:27;124.70;;;32.47;;
20497;SDS011;10407;53.238;10.448;2023-11-19T04:30:54;122.80;;;30.53;;
20497;SDS011;10407;53.238;10.448;2023-11-19T04:33:22;123.37;;;32.10;;
20497;SDS011;10407;53.238;10.448;2023-11-19T04:35:50;129.20;;;32.23;;
20497;SDS011;10407;53.238;10.448;2023-11-19T04:38:17;123.57;;;30.17;;
20497;SDS011;10407;53.238;10.448;2023-11-19T04:40:45;123.87;;;30.30;;
20497;SDS011;10407;53.238;10.448;2023-11-19T04:43:12;134.37;;;31.80;;
20497;SDS011;10407;53.238;10.448;2023-11-19T04:45:41;124.87;;;30.87;;
20497;SDS011;10407;53.238;10.448;2023-11-19T04:48:08;126.80;;;32.17;;
20497;SDS011;10407;53.238;10.448;2023-11-19T04:50:36;125.97;;;33.17;;
20497;SDS011;10407;53.238;10.448;2023-11-19T04:53:04;124.77;;;32.00;;
20497;SDS011;10407;53.238;10.448;2023-11-19T04:55:32;126.67;;;32.97;;
20497;SDS011;10407;53.238;10.448;2023-11-19T04:57:59;124.63;;;32.07;;
20497;SDS011;10407;53.238;10.448;2023-11-19T05:00:27;127.47;;;33.53;;
20497;SDS011;10407;53.238;10.448;2023-11-19T05:02:55;127.67;;;33.17;;
20497;SDS011;10407;53.238;10.448;2023-11-19T05:05:23;129.07;;;34.27;;
20497;SDS011;10407;53.238;10.448;2023-11-19T05:07:50;126.97;;;34.30;;
20497;SDS011;10407;53.238;10.448;2023-11-19T05:10:17;129.27;;;33.23;;
20497;SDS011;10407;53.238;10.448;2023-11-19T05:12:45;126.47;;;31.50;;
20497;SDS011;10407;53.238;10.448;2023-11-19T05:15:13;132.20;;;39.17;;
20497;SDS011;10407;53.238;10.448;2023-11-19T05:17:40;128.27;;;33.63;;
20497;SDS011;10407;53.238;10.448;2023-11-19T05:20:09;133.90;;;31.93;;
20497;SDS011;10407;53.238;10.448;2023-11-19T05:22:41;131.90;;;34.47;;
20497;SDS011;10407;53.238;10.448;2023-11-19T05:25:09;128.90;;;34.57;;
20497;SDS011;10407;53.238;10.448;2023-11-19T05:27:37;136.07;;;35.13;;
20497;SDS011;10407;53.238;10.448;2023-11-19T05:30:05;133.13;;;37.10;;
20497;SDS011;10407;53.238;10.448;2023-11-19T05:32:39;133.00;;;36.47;;
20497;SDS011;10407;53.238;10.448;2023-11-19T05:35:07;137.17;;;35.23;;
20497;SDS011;10407;53.238;10.448;2023-11-19T05:37:35;133.77;;;34.40;;
20497;SDS011;10407;53.238;10.448;2023-11-19T05:40:02;135.00;;;34.70;;
20497;SDS011;10407;53.238;10.448;2023-11-19T05:42:32;131.30;;;35.30;;
20497;SDS011;10407;53.238;10.448;2023-11-19T05:44:59;135.57;;;40.90;;
20497;SDS011;10407;53.238;10.448;2023-11-19T05:47:27;135.60;;;36.37;;
20497;SDS011;10407;53.238;10.448;2023-11-19T05:49:54;142.37;;;36.87;;
20497;SDS011;10407;53.238;10.448;2023-11-19T05:52:22;137.33;;;40.50;;
20497;SDS011;10407;53.238;10.448;2023-11-19T05:54:49;137.80;;;41.13;;
20497;SDS011;10407;53.238;10.448;2023-11-19T05:57:20;142.50;;;41.10;;
20497;SDS011;10407;53.238;10.448;2023-11-19T05:59:49;143.33;;;42.17;;
20497;SDS011;10407;53.238;10.448;2023-11-19T06:02:17;144.77;;;42.07;;
20497;SDS011;10407;53.238;10.448;2023-11-19T06:04:45;138.20;;;39.30;;
20497;SDS011;10407;53.238;10.448;2023-11-19T06:07:13;141.07;;;39.57;;
20497;SDS011;10407;53.238;10.448;2023-11-19T06:09:41;141.67;;;40.73;;
20497;SDS011;10407;53.238;10.448;2023-11-19T06:12:08;138.57;;;41.90;;
20497;SDS011;10407;53.238;10.448;2023-11-19T06:14:36;147.00;;;44.17;;
20497;SDS011;10407;53.238;10.448;2023-11-19T06:17:04;141.97;;;42.37;;
20497;SDS011;10407;53.238;10.448;2023-11-19T06:19:31;143.87;;;39.43;;
20497;SDS011;10407;53.238;10.448;2023-11-19T06:21:59;143.93;;;43.60;;
20497;SDS011;10407;53.238;10.448;2023-11-19T06:24:27;156.97;;;42.00;;
20497;SDS011;10407;53.238;10.448;2023-11-19T06:26:54;142.47;;;42.77;;
20497;SDS011;10407;53.238;10.448;2023-11-19T06:29:22;146.60;;;44.13;;
20497;SDS011;10407;53.238;10.448;2023-11-19T06:31:50;162.63;;;43.70;;
20497;SDS011;10407;53.238;10.448;2023-11-19T06:34:18;156.90;;;47.77;;
20497;SDS011;10407;53.238;10.448;2023-11-19T06:36:45;152.33;;;46.90;;
20497;SDS011;10407;53.238;10.448;2023-11-19T06:39:14;153.60;;;45.57;;
20497;SDS011;10407;53.238;10.448;2023-11-19T06:41:45;161.67;;;46.43;;
20497;SDS011;10407;53.238;10.448;2023-11-19T06:44:12;170.83;;;51.70;;
20497;SDS011;10407;53.238;10.448;2023-11-19T06:46:40;156.87;;;44.40;;
20497;SDS011;10407;53.238;10.448;2023-11-19T06:49:07;151.53;;;47.47;;
20497;SDS011;10407;53.238;10.448;2023-11-19T06:51:35;158.40;;;48.50;;
20497;SDS011;10407;53.238;10.448;2023-11-19T06:54:04;151.97;;;46.20;;
20497;SDS011;10407;53.238;10.448;2023-11-19T06:56:32;161.67;;;50.00;;
20497;SDS011;10407;53.238;10.448;2023-11-19T06:58:59;165.17;;;50.87;;
20497;SDS011;10407;53.238;10.448;2023-11-19T07:01:27;159.20;;;47.97;;
20497;SDS011;10407;53.238;10.448;2023-11-19T07:03:54;163.23;;;52.70;;
20497;SDS011;10407;53.238;10.448;2023-11-19T07:06:23;166.47;;;48.43;;
20497;SDS011;10407;53.238;10.448;2023-11-19T07:08:52;165.10;;;53.40;;
20497;SDS011;10407;53.238;10.448;2023-11-19T07:11:19;174.93;;;51.10;;
20497;SDS011;10407;53.238;10.448;2023-11-19T07:13:47;183.80;;;50.90;;
20497;SDS011;10407;53.238;10.448;2023-11-19T07:16:14;169.63;;;54.20;;
20497;SDS011;10407;53.238;10.448;2023-11-19T07:18:42;170.40;;;53.93;;
20497;SDS011;10407;53.238;10.448;2023-11-19T07:21:09;172.43;;;54.20;;
20497;SDS011;10407;53.238;10.448;2023-11-19T07:23:37;160.67;;;57.73;;
20497;SDS011;10407;53.238;10.448;2023-11-19T07:26:05;173.67;;;63.63;;
20497;SDS011;10407;53.238;10.448;2023-11-19T07:28:34;193.23;;;61.77;;
20497;SDS011;10407;53.238;10.448;2023-11-19T07:31:02;173.40;;;58.50;;
20497;SDS011;10407;53.238;10.448;2023-11-19T07:33:30;167.17;;;59.87;;
20497;SDS011;10407;53.238;10.448;2023-11-19T07:35:57;164.40;;;52.60;;
20497;SDS011;10407;53.238;10.448;2023-11-19T07:38:25;167.83;;;58.70;;
20497;SDS011;10407;53.238;10.448;2023-11-19T07:40:53;176.77;;;62.63;;
20497;SDS011;10407;53.238;10.448;2023-11-19T07:43:20;160.13;;;60.43;;
20497;SDS011;10407;53.238;10.448;2023-11-19T07:45:48;174.60;;;62.33;;
20497;SDS011;10407;53.238;10.448;2023-11-19T07:48:15;177.80;;;62.20;;
20497;SDS011;10407;53.238;10.448;2023-11-19T07:50:44;187.60;;;63.20;;
20497;SDS011;10407;53.238;10.448;2023-11-19T07:53:12;164.70;;;68.50;;
20497;SDS011;10407;53.238;10.448;2023-11-19T07:55:39;164.47;;;65.73;;
20497;SDS011;10407;53.238;10.448;2023-11-19T07:58:07;182.80;;;69.37;;
20497;SDS011;10407;53.238;10.448;2023-11-19T08:00:34;158.70;;;59.70;;
20497;SDS011;10407;53.238;10.448;2023-11-19T08:03:03;167.23;;;65.30;;
20497;SDS011;10407;53.238;10.448;2023-11-19T08:05:31;175.50;;;69.53;;
20497;SDS011;10407;53.238;10.448;2023-11-19T08:07:58;181.30;;;70.63;;
20497;SDS011;10407;53.238;10.448;2023-11-19T08:10:26;174.40;;;65.97;;
20497;SDS011;10407;53.238;10.448;2023-11-19T08:12:54;172.93;;;69.20;;
20497;SDS011;10407;53.238;10.448;2023-11-19T08:15:22;160.77;;;68.47;;
20497;SDS011;10407;53.238;10.448;2023-11-19T08:17:49;169.43;;;72.83;;
20497;SDS011;10407;53.238;10.448;2023-11-19T08:20:17;187.83;;;85.23;;
20497;SDS011;10407;53.238;10.448;2023-11-19T08:22:44;179.93;;;78.47;;
20497;SDS011;10407;53.238;10.448;2023-11-19T08:25:12;174.53;;;81.43;;
20497;SDS011;10407;53.238;10.448;2023-11-19T08:27:39;178.63;;;88.97;;
20497;SDS011;10407;53.238;10.448;2023-11-19T08:30:07;173.83;;;83.03;;
20497;SDS011;10407;53.238;10.448;2023-11-19T08:32:36;154.57;;;65.53;;
20497;SDS011;10407;53.238;10.448;2023-11-19T08:35:04;159.37;;;61.07;;
20497;SDS011;10407;53.238;10.448;2023-11-19T08:37:31;149.43;;;52.43;;
20497;SDS011;10407;53.238;10.448;2023-11-19T08:39:59;145.57;;;42.30;;
20497;SDS011;10407;53.238;10.448;2023-11-19T08:42:27;160.77;;;44.90;;
20497;SDS011;10407;53.238;10.448;2023-11-19T08:44:55;168.13;;;39.53;;
20497;SDS011;10407;53.238;10.448;2023-11-19T08:47:23;146.50;;;33.90;;
20497;SDS011;10407;53.238;10.448;2023-11-19T08:49:51;145.03;;;36.53;;
20497;SDS011;10407;53.238;10.448;2023-11-19T08:52:19;154.57;;;38.13;;
20497;SDS011;10407;53.238;10.448;2023-11-19T08:54:47;164.63;;;39.93;;
20497;SDS011;10407;53.238;10.448;2023-11-19T08:57:14;154.33;;;41.87;;
20497;SDS011;10407;53.238;10.448;2023-11-19T08:59:42;149.87;;;40.37;;
20497;SDS011;10407;53.238;10.448;2023-11-19T09:02:11;168.70;;;35.00;;
20497;SDS011;10407;53.238;10.448;2023-11-19T09:04:39;147.27;;;34.87;;
20497;SDS011;10407;53.238;10.448;2023-11-19T09:07:06;153.90;;;38.07;;
20497;SDS011;10407;53.238;10.448;2023-11-19T09:09:35;136.27;;;36.20;;
20497;SDS011;10407;53.238;10.448;2023-11-19T09:12:03;150.83;;;37.83;;
20497;SDS011;10407;53.238;10.448;2023-11-19T09:14:31;149.17;;;34.83;;
20497;SDS011;10407;53.238;10.448;2023-11-19T09:16:59;155.00;;;35.00;;
20497;SDS011;10407;53.238;10.448;2023-11-19T09:19:26;146.27;;;36.07;;
20497;SDS011;10407;53.238;10.448;2023-11-19T09:21:54;139.63;;;32.30;;
20497;SDS011;10407;53.238;10.448;2023-11-19T09:24:21;140.53;;;29.13;;
20497;SDS011;10407;53.238;10.448;2023-11-19T09:26:49;153.07;;;32.87;;
20497;SDS011;10407;53.238;10.448;2023-11-19T09:29:16;147.07;;;30.87;;
20497;SDS011;10407;53.238;10.448;2023-11-19T09:34:33;143.07;;;28.40;;
20497;SDS011;10407;53.238;10.448;2023-11-19T09:37:00;140.97;;;29.93;;
20497;SDS011;10407;53.238;10.448;2023-11-19T09:39:28;140.50;;;29.00;;
20497;SDS011;10407;53.238;10.448;2023-11-19T09:41:56;156.80;;;28.43;;
20497;SDS011;10407;53.238;10.448;2023-11-19T09:44:23;147.20;;;26.80;;
20497;SDS011;10407;53.238;10.448;2023-11-19T09:46:51;145.50;;;28.17;;
20497;SDS011;10407;53.238;10.448;2023-11-19T09:49:21;152.40;;;29.90;;
20497;SDS011;10407;53.238;10.448;2023-11-19T09:51:50;160.73;;;27.63;;
20497;SDS011;10407;53.238;10.448;2023-11-19T09:54:17;159.83;;;25.53;;
20497;SDS011;10407;53.238;10.448;2023-11-19T09:56:45;158.57;;;26.90;;
20497;SDS011;10407;53.238;10.448;2023-11-19T09:59:14;143.37;;;25.53;;
20497;SDS011;10407;53.238;10.448;2023-11-19T10:01:43;141.60;;;26.60;;
20497;SDS011;10407;53.238;10.448;2023-11-19T10:04:12;141.70;;;25.17;;
20497;SDS011;10407;53.238;10.448;2023-11-19T10:06:42;160.27;;;29.67;;
20497;SDS011;10407;53.238;10.448;2023-11-19T10:09:11;155.57;;;27.13;;
20497;SDS011;10407;53.238;10.448;2023-11-19T10:11:41;150.40;;;27.00;;
20497;SDS011;10407;53.238;10.448;2023-11-19T10:14:08;142.20;;;25.97;;
20497;SDS011;10407;53.238;10.448;2023-11-19T10:16:36;150.43;;;27.00;;
20497;SDS011;10407;53.238;10.448;2023-11-19T10:19:06;155.33;;;24.17;;
20497;SDS011;10407;53.238;10.448;2023-11-19T10:21:34;150.00;;;26.63;;
20497;SDS011;10407;53.238;10.448;2023-11-19T10:24:02;154.73;;;24.90;;
20497;SDS011;10407;53.238;10.448;2023-11-19T10:26:31;149.33;;;25.27;;
20497;SDS011;10407;53.238;10.448;2023-11-19T10:29:00;145.70;;;23.93;;
20497;SDS011;10407;53.238;10.448;2023-11-19T10:31:27;141.70;;;23.23;;
20497;SDS011;10407;53.238;10.448;2023-11-19T10:33:55;152.73;;;26.83;;
20497;SDS011;10407;53.238;10.448;2023-11-19T10:36:22;144.83;;;25.13;;
20497;SDS011;10407;53.238;10.448;2023-11-19T10:38:55;143.07;;;24.83;;
20497;SDS011;10407;53.238;10.448;2023-11-19T10:41:32;144.53;;;25.90;;
20497;SDS011;10407;53.238;10.448;2023-11-19T10:43:57;152.83;;;22.83;;
20497;SDS011;10407;53.238;10.448;2023-11-19T10:46:41;149.23;;;25.90;;
20497;SDS011;10407;53.238;10.448;2023-11-19T10:49:10;153.20;;;26.57;;
20497;SDS011;10407;53.238;10.448;2023-11-19T10:51:40;136.40;;;23.97;;
20497;SDS011;10407;53.238;10.448;2023-11-19T10:54:13;151.07;;;22.67;;
20497;SDS011;10407;53.238;10.448;2023-11-19T10:56:44;141.07;;;24.20;;
20497;SDS011;10407;53.238;10.448;2023-11-19T10:59:13;140.73;;;24.57;;
20497;SDS011;10407;53.238;10.448;2023-11-19T11:01:46;147.73;;;23.77;;
20497;SDS011;10407;53.238;10.448;2023-11-19T11:04:13;135.80;;;24.23;;
20497;SDS011;10407;53.238;10.448;2023-11-19T11:06:41;146.23;;;23.80;;
20497;SDS011;10407;53.238;10.448;2023-11-19T11:09:09;136.13;;;22.97;;
20497;SDS011;10407;53.238;10.448;2023-11-19T11:11:39;138.63;;;25.57;;
20497;SDS011;10407;53.238;10.448;2023-11-19T11:14:10;135.13;;;23.67;;
20497;SDS011;10407;53.238;10.448;2023-11-19T11:16:42;155.10;;;26.77;;
20497;SDS011;10407;53.238;10.448;2023-11-19T11:19:10;154.23;;;24.47;;
20497;SDS011;10407;53.238;10.448;2023-11-19T11:21:39;147.23;;;23.73;;
20497;SDS011;10407;53.238;10.448;2023-11-19T11:24:14;147.90;;;26.53;;
20497;SDS011;10407;53.238;10.448;2023-11-19T11:29:41;147.97;;;26.47;;
20497;SDS011;10407;53.238;10.448;2023-11-19T11:32:32;160.63;;;24.87;;
20497;SDS011;10407;53.238;10.448;2023-11-19T11:35:25;157.03;;;26.20;;
20497;SDS011;10407;53.238;10.448;2023-11-19T11:38:11;143.00;;;23.30;;
20497;SDS011;10407;53.238;10.448;2023-11-19T11:40:41;144.70;;;22.20;;
20497;SDS011;10407;53.238;10.448;2023-11-19T11:49:02;153.23;;;25.00;;
20497;SDS011;10407;53.238;10.448;2023-11-19T11:57:03;150.47;;;27.67;;
20497;SDS011;10407;53.238;10.448;2023-11-19T12:02:15;140.57;;;23.83;;
20497;SDS011;10407;53.238;10.448;2023-11-19T12:04:52;141.83;;;24.60;;
20497;SDS011;10407;53.238;10.448;2023-11-19T12:07:18;158.73;;;22.30;;
20497;SDS011;10407;53.238;10.448;2023-11-19T12:09:48;147.27;;;21.27;;
20497;SDS011;10407;53.238;10.448;2023-11-19T12:12:18;140.87;;;24.37;;
20497;SDS011;10407;53.238;10.448;2023-11-19T12:20:06;146.23;;;23.20;;
20497;SDS011;10407;53.238;10.448;2023-11-19T12:22:42;139.27;;;23.00;;
20497;SDS011;10407;53.238;10.448;2023-11-19T12:25:08;136.40;;;24.57;;
20497;SDS011;10407;53.238;10.448;2023-11-19T12:27:41;129.87;;;21.70;;
20497;SDS011;10407;53.238;10.448;2023-11-19T12:30:10;140.83;;;23.20;;
20497;SDS011;10407;53.238;10.448;2023-11-19T12:32:42;144.00;;;24.37;;
20497;SDS011;10407;53.238;10.448;2023-11-19T12:35:11;126.73;;;23.40;;
20497;SDS011;10407;53.238;10.448;2023-11-19T12:37:45;134.40;;;22.07;;
20497;SDS011;10407;53.238;10.448;2023-11-19T12:40:13;137.77;;;24.40;;
20497;SDS011;10407;53.238;10.448;2023-11-19T12:42:44;133.30;;;25.20;;
20497;SDS011;10407;53.238;10.448;2023-11-19T12:45:16;126.13;;;22.23;;
20497;SDS011;10407;53.238;10.448;2023-11-19T12:47:45;146.90;;;22.20;;
20497;SDS011;10407;53.238;10.448;2023-11-19T12:50:15;130.83;;;25.27;;
20497;SDS011;10407;53.238;10.448;2023-11-19T12:52:56;136.00;;;24.90;;
20497;SDS011;10407;53.238;10.448;2023-11-19T12:55:33;151.10;;;27.90;;
20497;SDS011;10407;53.238;10.448;2023-11-19T12:57:54;142.37;;;24.93;;
20497;SDS011;10407;53.238;10.448;2023-11-19T13:00:24;147.53;;;24.00;;
20497;SDS011;10407;53.238;10.448;2023-11-19T13:02:54;143.63;;;22.87;;
20497;SDS011;10407;53.238;10.448;2023-11-19T13:05:32;134.40;;;21.43;;
20497;SDS011;10407;53.238;10.448;2023-11-19T13:08:02;144.80;;;24.70;;
20497;SDS011;10407;53.238;10.448;2023-11-19T13:10:32;140.50;;;23.53;;
20497;SDS011;10407;53.238;10.448;2023-11-19T13:13:04;143.03;;;24.20;;
20497;SDS011;10407;53.238;10.448;2023-11-19T13:15:34;131.40;;;21.57;;
20497;SDS011;10407;53.238;10.448;2023-11-19T13:18:02;140.83;;;22.37;;
20497;SDS011;10407;53.238;10.448;2023-11-19T13:20:29;143.50;;;22.10;;
20497;SDS011;10407;53.238;10.448;2023-11-19T13:23:01;146.67;;;25.57;;
20497;SDS011;10407;53.238;10.448;2023-11-19T13:25:30;142.13;;;22.73;;
20497;SDS011;10407;53.238;10.448;2023-11-19T13:27:58;150.10;;;21.73;;
20497;SDS011;10407;53.238;10.448;2023-11-19T13:30:26;133.57;;;23.03;;
20497;SDS011;10407;53.238;10.448;2023-11-19T13:32:55;155.07;;;25.77;;
20497;SDS011;10407;53.238;10.448;2023-11-19T13:35:22;138.97;;;23.87;;
20497;SDS011;10407;53.238;10.448;2023-11-19T13:37:50;156.13;;;26.40;;
20497;SDS011;10407;53.238;10.448;2023-11-19T13:40:18;136.57;;;24.73;;
20497;SDS011;10407;53.238;10.448;2023-11-19T13:42:47;136.80;;;22.20;;
20497;SDS011;10407;53.238;10.448;2023-11-19T13:45:14;137.53;;;26.57;;
20497;SDS011;10407;53.238;10.448;2023-11-19T13:47:44;134.50;;;23.10;;
20497;SDS011;10407;53.238;10.448;2023-11-19T13:50:13;141.97;;;26.50;;
20497;SDS011;10407;53.238;10.448;2023-11-19T13:52:43;148.20;;;23.57;;
20497;SDS011;10407;53.238;10.448;2023-11-19T13:55:12;134.00;;;22.43;;
20497;SDS011;10407;53.238;10.448;2023-11-19T13:57:40;144.93;;;23.67;;
20497;SDS011;10407;53.238;10.448;2023-11-19T14:00:09;148.20;;;26.10;;
20497;SDS011;10407;53.238;10.448;2023-11-19T14:02:46;160.77;;;28.03;;
20497;SDS011;10407;53.238;10.448;2023-11-19T14:05:14;160.30;;;24.30;;
20497;SDS011;10407;53.238;10.448;2023-11-19T14:07:45;138.17;;;23.57;;
20497;SDS011;10407;53.238;10.448;2023-11-19T14:10:17;144.43;;;21.40;;
20497;SDS011;10407;53.238;10.448;2023-11-19T14:12:45;147.87;;;24.20;;
20497;SDS011;10407;53.238;10.448;2023-11-19T14:15:12;150.67;;;24.23;;
20497;SDS011;10407;53.238;10.448;2023-11-19T14:17:40;163.30;;;25.33;;
20497;SDS011;10407;53.238;10.448;2023-11-19T14:20:07;139.77;;;23.47;;
20497;SDS011;10407;53.238;10.448;2023-11-19T14:22:43;153.10;;;24.40;;
20497;SDS011;10407;53.238;10.448;2023-11-19T14:25:14;166.40;;;26.57;;
20497;SDS011;10407;53.238;10.448;2023-11-19T14:27:42;147.77;;;25.97;;
20497;SDS011;10407;53.238;10.448;2023-11-19T14:30:11;138.93;;;23.63;;